sensor_id;sensor_type;location;lat;lon;timestamp;temperature;humidity
1786;DHT22;890;48.158;11.540;2024-01-16T00:01:20;-0.60;93.10
1786;DHT22;890;48.158;11.540;2024-01-16T00:03:46;-0.60;93.10
1786;DHT22;890;48.158;11.540;2024-01-16T00:06:12;-0.60;93.10
1786;DHT22;890;48.158;11.540;2024-01-16T00:08:38;-0.60;93.10
1786;DHT22;890;48.158;11.540;2024-01-16T00:11:04;-0.60;93.10
1786;DHT22;890;48.158;11.540;2024-01-16T00:13:30;-0.60;93.10
1786;DHT22;890;48.158;11.540;2024-01-16T00:15:56;-0.50;93.10
1786;DHT22;890;48.158;11.540;2024-01-16T00:18:22;-0.10;93.20
1786;DHT22;890;48.158;11.540;2024-01-16T00:20:48;-0.20;93.20
1786;DHT22;890;48.158;11.540;2024-01-16T00:23:14;-0.60;93.00
1786;DHT22;890;48.158;11.540;2024-01-16T00:25:40;-0.60;93.00
1786;DHT22;890;48.158;11.540;2024-01-16T00:28:06;-0.50;93.00
1786;DHT22;890;48.158;11.540;2024-01-16T00:30:32;-0.50;92.90
1786;DHT22;890;48.158;11.540;2024-01-16T00:32:59;-0.40;92.90
1786;DHT22;890;48.158;11.540;2024-01-16T00:35:25;-0.50;92.70
1786;DHT22;890;48.158;11.540;2024-01-16T00:37:50;-0.50;92.70
1786;DHT22;890;48.158;11.540;2024-01-16T00:40:16;-0.60;92.60
1786;DHT22;890;48.158;11.540;2024-01-16T00:42:42;-0.60;92.60
1786;DHT22;890;48.158;11.540;2024-01-16T00:45:08;1.00;93.50
1786;DHT22;890;48.158;11.540;2024-01-16T00:47:33;-0.50;92.80
1786;DHT22;890;48.158;11.540;2024-01-16T00:49:59;-0.40;92.70
1786;DHT22;890;48.158;11.540;2024-01-16T00:52:28;-0.40;92.70
1786;DHT22;890;48.158;11.540;2024-01-16T00:54:53;-0.30;92.60
1786;DHT22;890;48.158;11.540;2024-01-16T00:57:19;-0.50;92.40
1786;DHT22;890;48.158;11.540;2024-01-16T00:59:46;-0.40;92.40
1786;DHT22;890;48.158;11.540;2024-01-16T01:02:12;0.60;92.90
1786;DHT22;890;48.158;11.540;2024-01-16T01:04:37;-0.50;92.30
1786;DHT22;890;48.158;11.540;2024-01-16T01:07:03;-0.50;92.30
1786;DHT22;890;48.158;11.540;2024-01-16T01:09:32;-0.60;92.20
1786;DHT22;890;48.158;11.540;2024-01-16T01:11:57;0.20;92.60
1786;DHT22;890;48.158;11.540;2024-01-16T01:14:23;-0.70;92.10
1786;DHT22;890;48.158;11.540;2024-01-16T01:16:51;-0.80;92.00
1786;DHT22;890;48.158;11.540;2024-01-16T01:19:16;-0.10;92.40
1786;DHT22;890;48.158;11.540;2024-01-16T01:21:42;-0.80;92.00
1786;DHT22;890;48.158;11.540;2024-01-16T01:24:08;-0.80;91.90
1786;DHT22;890;48.158;11.540;2024-01-16T01:26:34;-0.90;91.80
1786;DHT22;890;48.158;11.540;2024-01-16T01:29:01;-0.90;91.80
1786;DHT22;890;48.158;11.540;2024-01-16T01:31:26;-0.90;91.70
1786;DHT22;890;48.158;11.540;2024-01-16T01:33:52;-0.90;91.60
1786;DHT22;890;48.158;11.540;2024-01-16T01:36:17;-1.00;91.60
1786;DHT22;890;48.158;11.540;2024-01-16T01:38:43;-0.90;91.70
1786;DHT22;890;48.158;11.540;2024-01-16T01:41:09;-0.90;91.80
1786;DHT22;890;48.158;11.540;2024-01-16T01:43:37;-0.70;91.90
1786;DHT22;890;48.158;11.540;2024-01-16T01:48:37;-0.80;92.00
1786;DHT22;890;48.158;11.540;2024-01-16T01:51:03;-0.80;91.90
1786;DHT22;890;48.158;11.540;2024-01-16T01:53:31;-0.80;92.10
1786;DHT22;890;48.158;11.540;2024-01-16T01:55:58;-0.80;91.80
1786;DHT22;890;48.158;11.540;2024-01-16T01:58:24;-0.80;91.70
1786;DHT22;890;48.158;11.540;2024-01-16T02:00:50;-0.80;91.70
1786;DHT22;890;48.158;11.540;2024-01-16T02:03:17;-0.80;91.70
1786;DHT22;890;48.158;11.540;2024-01-16T02:05:43;-0.80;91.70
1786;DHT22;890;48.158;11.540;2024-01-16T02:08:09;-0.80;91.70
1786;DHT22;890;48.158;11.540;2024-01-16T02:10:37;-0.70;91.80
1786;DHT22;890;48.158;11.540;2024-01-16T02:13:04;-0.70;91.80
1786;DHT22;890;48.158;11.540;2024-01-16T02:15:30;-0.60;91.90
1786;DHT22;890;48.158;11.540;2024-01-16T02:17:57;-0.60;91.80
1786;DHT22;890;48.158;11.540;2024-01-16T02:20:23;-0.60;91.80
1786;DHT22;890;48.158;11.540;2024-01-16T02:22:50;-0.70;91.60
1786;DHT22;890;48.158;11.540;2024-01-16T02:25:17;-0.80;91.60
1786;DHT22;890;48.158;11.540;2024-01-16T02:27:43;-0.80;91.90
1786;DHT22;890;48.158;11.540;2024-01-16T02:30:09;-0.80;91.50
1786;DHT22;890;48.158;11.540;2024-01-16T02:32:35;-0.90;91.40
1786;DHT22;890;48.158;11.540;2024-01-16T02:35:00;-0.90;91.40
1786;DHT22;890;48.158;11.540;2024-01-16T02:37:26;-0.90;91.40
1786;DHT22;890;48.158;11.540;2024-01-16T02:39:52;-0.90;91.30
1786;DHT22;890;48.158;11.540;2024-01-16T02:42:17;-0.90;91.20
1786;DHT22;890;48.158;11.540;2024-01-16T02:44:43;-0.90;91.30
1786;DHT22;890;48.158;11.540;2024-01-16T02:47:08;-0.90;91.20
1786;DHT22;890;48.158;11.540;2024-01-16T02:49:34;-0.90;91.20
1786;DHT22;890;48.158;11.540;2024-01-16T02:52:02;-0.90;91.20
1786;DHT22;890;48.158;11.540;2024-01-16T02:54:28;-1.00;91.00
1786;DHT22;890;48.158;11.540;2024-01-16T02:56:54;-1.00;91.00
1786;DHT22;890;48.158;11.540;2024-01-16T02:59:20;-0.90;91.10
1786;DHT22;890;48.158;11.540;2024-01-16T03:01:45;-0.90;91.10
1786;DHT22;890;48.158;11.540;2024-01-16T03:04:11;-0.90;91.00
1786;DHT22;890;48.158;11.540;2024-01-16T03:06:37;-0.90;91.00
1786;DHT22;890;48.158;11.540;2024-01-16T03:09:02;-0.90;90.90
1786;DHT22;890;48.158;11.540;2024-01-16T03:11:28;-0.90;90.90
1786;DHT22;890;48.158;11.540;2024-01-16T03:13:54;-0.90;90.90
1786;DHT22;890;48.158;11.540;2024-01-16T03:16:19;-1.00;90.80
1786;DHT22;890;48.158;11.540;2024-01-16T03:18:45;-1.00;90.80
1786;DHT22;890;48.158;11.540;2024-01-16T03:21:12;-1.00;90.80
1786;DHT22;890;48.158;11.540;2024-01-16T03:23:38;-1.00;90.70
1786;DHT22;890;48.158;11.540;2024-01-16T03:26:04;-1.10;90.90
1786;DHT22;890;48.158;11.540;2024-01-16T03:28:29;-1.10;90.60
1786;DHT22;890;48.158;11.540;2024-01-16T03:30:55;-1.20;90.60
1786;DHT22;890;48.158;11.540;2024-01-16T03:33:21;-1.10;90.70
1786;DHT22;890;48.158;11.540;2024-01-16T03:35:46;-1.20;90.50
1786;DHT22;890;48.158;11.540;2024-01-16T03:38:13;-1.20;90.60
1786;DHT22;890;48.158;11.540;2024-01-16T03:40:38;-1.20;90.50
1786;DHT22;890;48.158;11.540;2024-01-16T03:43:04;-1.20;90.60
1786;DHT22;890;48.158;11.540;2024-01-16T03:45:33;-1.20;90.60
1786;DHT22;890;48.158;11.540;2024-01-16T03:47:58;-1.20;90.60
1786;DHT22;890;48.158;11.540;2024-01-16T03:50:24;-1.20;90.50
1786;DHT22;890;48.158;11.540;2024-01-16T03:52:50;-1.20;90.50
1786;DHT22;890;48.158;11.540;2024-01-16T03:55:15;-1.20;90.50
1786;DHT22;890;48.158;11.540;2024-01-16T03:57:41;-1.20;90.40
1786;DHT22;890;48.158;11.540;2024-01-16T04:00:08;-1.20;90.40
1786;DHT22;890;48.158;11.540;2024-01-16T04:02:37;-1.30;90.40
1786;DHT22;890;48.158;11.540;2024-01-16T04:05:04;-1.20;90.50
1786;DHT22;890;48.158;11.540;2024-01-16T04:07:29;-1.20;90.50
1786;DHT22;890;48.158;11.540;2024-01-16T04:09:55;-1.20;90.40
1786;DHT22;890;48.158;11.540;2024-01-16T04:12:21;-1.20;90.40
1786;DHT22;890;48.158;11.540;2024-01-16T04:14:47;-1.10;90.50
1786;DHT22;890;48.158;11.540;2024-01-16T04:17:12;-1.10;90.50
1786;DHT22;890;48.158;11.540;2024-01-16T04:19:38;-1.10;90.50
1786;DHT22;890;48.158;11.540;2024-01-16T04:22:04;-1.00;90.50
1786;DHT22;890;48.158;11.540;2024-01-16T04:24:30;-1.00;90.50
1786;DHT22;890;48.158;11.540;2024-01-16T04:26:56;-1.00;90.80
1786;DHT22;890;48.158;11.540;2024-01-16T04:29:22;-1.00;90.40
1786;DHT22;890;48.158;11.540;2024-01-16T04:31:48;-1.10;90.40
1786;DHT22;890;48.158;11.540;2024-01-16T04:34:14;0.50;91.10
1786;DHT22;890;48.158;11.540;2024-01-16T04:36:39;-1.10;90.40
1786;DHT22;890;48.158;11.540;2024-01-16T04:39:05;-1.20;90.50
1786;DHT22;890;48.158;11.540;2024-01-16T04:41:37;-1.20;90.40
1786;DHT22;890;48.158;11.540;2024-01-16T04:44:03;-1.30;90.50
1786;DHT22;890;48.158;11.540;2024-01-16T04:46:28;-1.30;90.40
1786;DHT22;890;48.158;11.540;2024-01-16T04:48:55;-1.30;90.40
1786;DHT22;890;48.158;11.540;2024-01-16T04:51:20;-1.30;90.50
1786;DHT22;890;48.158;11.540;2024-01-16T04:53:46;-1.30;90.40
1786;DHT22;890;48.158;11.540;2024-01-16T04:56:11;-1.40;90.30
1786;DHT22;890;48.158;11.540;2024-01-16T04:58:37;-1.40;90.30
1786;DHT22;890;48.158;11.540;2024-01-16T05:01:03;-1.40;90.30
1786;DHT22;890;48.158;11.540;2024-01-16T05:03:28;-1.50;90.20
1786;DHT22;890;48.158;11.540;2024-01-16T05:05:54;-1.50;90.20
1786;DHT22;890;48.158;11.540;2024-01-16T05:08:21;-1.60;90.20
1786;DHT22;890;48.158;11.540;2024-01-16T05:10:47;-1.40;90.30
1786;DHT22;890;48.158;11.540;2024-01-16T05:13:13;-1.60;90.20
1786;DHT22;890;48.158;11.540;2024-01-16T05:15:39;-1.60;90.20
1786;DHT22;890;48.158;11.540;2024-01-16T05:18:05;-1.50;90.30
1786;DHT22;890;48.158;11.540;2024-01-16T05:20:31;-1.50;90.20
1786;DHT22;890;48.158;11.540;2024-01-16T05:22:56;-1.50;90.20
1786;DHT22;890;48.158;11.540;2024-01-16T05:25:22;-1.50;90.20
1786;DHT22;890;48.158;11.540;2024-01-16T05:27:48;-1.40;90.30
1786;DHT22;890;48.158;11.540;2024-01-16T05:30:15;-1.30;90.30
1786;DHT22;890;48.158;11.540;2024-01-16T05:32:41;-1.30;90.30
1786;DHT22;890;48.158;11.540;2024-01-16T05:35:07;-1.30;90.20
1786;DHT22;890;48.158;11.540;2024-01-16T05:37:32;-1.30;90.20
1786;DHT22;890;48.158;11.540;2024-01-16T05:39:58;-1.30;90.10
1786;DHT22;890;48.158;11.540;2024-01-16T05:42:24;-1.30;90.10
1786;DHT22;890;48.158;11.540;2024-01-16T05:44:51;-1.30;90.10
1786;DHT22;890;48.158;11.540;2024-01-16T05:47:18;-1.30;90.00
1786;DHT22;890;48.158;11.540;2024-01-16T05:49:44;-1.30;90.00
1786;DHT22;890;48.158;11.540;2024-01-16T05:52:10;-1.30;90.00
1786;DHT22;890;48.158;11.540;2024-01-16T05:54:35;-1.30;89.90
1786;DHT22;890;48.158;11.540;2024-01-16T05:57:01;-1.40;89.90
1786;DHT22;890;48.158;11.540;2024-01-16T05:59:28;-1.40;89.90
1786;DHT22;890;48.158;11.540;2024-01-16T06:01:54;-1.40;90.00
1786;DHT22;890;48.158;11.540;2024-01-16T06:04:19;-1.40;90.00
1786;DHT22;890;48.158;11.540;2024-01-16T06:06:45;-1.40;89.90
1786;DHT22;890;48.158;11.540;2024-01-16T06:09:13;-1.30;90.00
1786;DHT22;890;48.158;11.540;2024-01-16T06:11:40;-1.30;90.00
1786;DHT22;890;48.158;11.540;2024-01-16T06:14:07;-1.40;90.00
1786;DHT22;890;48.158;11.540;2024-01-16T06:16:33;-1.40;90.00
1786;DHT22;890;48.158;11.540;2024-01-16T06:18:58;-1.40;90.00
1786;DHT22;890;48.158;11.540;2024-01-16T06:21:24;-1.40;90.00
1786;DHT22;890;48.158;11.540;2024-01-16T06:23:50;-1.40;90.00
1786;DHT22;890;48.158;11.540;2024-01-16T06:26:15;-1.40;90.10
1786;DHT22;890;48.158;11.540;2024-01-16T06:28:41;-1.30;90.10
1786;DHT22;890;48.158;11.540;2024-01-16T06:31:08;-1.30;90.10
1786;DHT22;890;48.158;11.540;2024-01-16T06:33:34;-1.20;90.10
1786;DHT22;890;48.158;11.540;2024-01-16T06:36:00;-1.20;90.10
1786;DHT22;890;48.158;11.540;2024-01-16T06:38:26;-1.20;90.10
1786;DHT22;890;48.158;11.540;2024-01-16T06:40:52;-1.30;90.00
1786;DHT22;890;48.158;11.540;2024-01-16T06:43:18;-1.20;90.10
1786;DHT22;890;48.158;11.540;2024-01-16T06:45:44;-1.20;90.10
1786;DHT22;890;48.158;11.540;2024-01-16T06:48:10;-1.60;89.90
1786;DHT22;890;48.158;11.540;2024-01-16T06:50:36;-1.10;90.10
1786;DHT22;890;48.158;11.540;2024-01-16T06:53:02;-1.10;90.10
1786;DHT22;890;48.158;11.540;2024-01-16T06:55:27;-1.00;90.10
1786;DHT22;890;48.158;11.540;2024-01-16T06:57:53;-1.00;90.20
1786;DHT22;890;48.158;11.540;2024-01-16T07:00:20;-1.00;90.10
1786;DHT22;890;48.158;11.540;2024-01-16T07:02:48;-1.00;90.10
1786;DHT22;890;48.158;11.540;2024-01-16T07:05:14;-0.90;90.20
1786;DHT22;890;48.158;11.540;2024-01-16T07:07:39;-0.90;90.20
1786;DHT22;890;48.158;11.540;2024-01-16T07:10:06;-0.90;90.20
1786;DHT22;890;48.158;11.540;2024-01-16T07:12:34;-0.80;90.30
1786;DHT22;890;48.158;11.540;2024-01-16T07:15:00;-0.80;90.20
1786;DHT22;890;48.158;11.540;2024-01-16T07:17:25;-0.70;90.30
1786;DHT22;890;48.158;11.540;2024-01-16T07:19:51;-0.70;90.20
1786;DHT22;890;48.158;11.540;2024-01-16T07:22:17;-0.70;90.30
1786;DHT22;890;48.158;11.540;2024-01-16T07:24:42;-0.60;90.30
1786;DHT22;890;48.158;11.540;2024-01-16T07:27:08;-0.60;90.40
1786;DHT22;890;48.158;11.540;2024-01-16T07:29:33;-0.60;90.40
1786;DHT22;890;48.158;11.540;2024-01-16T07:31:59;-0.50;90.40
1786;DHT22;890;48.158;11.540;2024-01-16T07:34:25;-0.40;90.50
1786;DHT22;890;48.158;11.540;2024-01-16T07:36:51;-0.40;90.40
1786;DHT22;890;48.158;11.540;2024-01-16T07:39:16;-0.50;90.40
1786;DHT22;890;48.158;11.540;2024-01-16T07:41:42;-0.40;90.50
1786;DHT22;890;48.158;11.540;2024-01-16T07:44:08;-0.40;90.60
1786;DHT22;890;48.158;11.540;2024-01-16T07:46:34;-0.30;90.60
1786;DHT22;890;48.158;11.540;2024-01-16T07:49:00;-0.30;90.70
1786;DHT22;890;48.158;11.540;2024-01-16T07:51:25;-0.20;90.80
1786;DHT22;890;48.158;11.540;2024-01-16T07:54:07;-0.20;90.70
1786;DHT22;890;48.158;11.540;2024-01-16T07:56:34;-0.20;90.70
1786;DHT22;890;48.158;11.540;2024-01-16T07:59:00;-0.20;90.60
1786;DHT22;890;48.158;11.540;2024-01-16T08:01:27;-0.20;90.70
1786;DHT22;890;48.158;11.540;2024-01-16T08:03:56;-0.20;90.80
1786;DHT22;890;48.158;11.540;2024-01-16T08:06:23;-0.10;91.00
1786;DHT22;890;48.158;11.540;2024-01-16T08:08:49;-0.10;91.00
1786;DHT22;890;48.158;11.540;2024-01-16T08:11:15;0.00;91.10
1786;DHT22;890;48.158;11.540;2024-01-16T08:13:41;-0.20;90.90
1786;DHT22;890;48.158;11.540;2024-01-16T08:16:07;-0.30;91.00
1786;DHT22;890;48.158;11.540;2024-01-16T08:18:33;-0.40;91.10
1786;DHT22;890;48.158;11.540;2024-01-16T08:20:59;-0.20;91.20
1786;DHT22;890;48.158;11.540;2024-01-16T08:23:25;-0.10;91.10
1786;DHT22;890;48.158;11.540;2024-01-16T08:25:50;-0.10;91.10
1786;DHT22;890;48.158;11.540;2024-01-16T08:28:17;-0.10;91.20
1786;DHT22;890;48.158;11.540;2024-01-16T08:30:43;-0.10;91.20
1786;DHT22;890;48.158;11.540;2024-01-16T08:33:10;-0.10;91.30
1786;DHT22;890;48.158;11.540;2024-01-16T08:35:35;0.00;91.40
1786;DHT22;890;48.158;11.540;2024-01-16T08:38:01;0.10;91.60
1786;DHT22;890;48.158;11.540;2024-01-16T08:40:27;0.40;91.90
1786;DHT22;890;48.158;11.540;2024-01-16T08:42:52;0.50;91.70
1786;DHT22;890;48.158;11.540;2024-01-16T08:45:23;0.50;91.60
1786;DHT22;890;48.158;11.540;2024-01-16T08:47:49;0.60;91.50
1786;DHT22;890;48.158;11.540;2024-01-16T08:50:17;0.60;91.60
1786;DHT22;890;48.158;11.540;2024-01-16T08:52:43;0.70;91.70
1786;DHT22;890;48.158;11.540;2024-01-16T08:55:09;0.70;91.70
1786;DHT22;890;48.158;11.540;2024-01-16T08:57:36;0.70;91.70
1786;DHT22;890;48.158;11.540;2024-01-16T09:00:05;0.80;91.90
1786;DHT22;890;48.158;11.540;2024-01-16T09:02:31;0.90;92.10
1786;DHT22;890;48.158;11.540;2024-01-16T09:04:57;1.00;92.40
1786;DHT22;890;48.158;11.540;2024-01-16T09:07:24;1.20;93.00
1786;DHT22;890;48.158;11.540;2024-01-16T09:09:50;1.40;93.30
1786;DHT22;890;48.158;11.540;2024-01-16T09:12:16;1.60;93.70
1786;DHT22;890;48.158;11.540;2024-01-16T09:14:41;1.60;93.40
1786;DHT22;890;48.158;11.540;2024-01-16T09:17:07;1.60;93.50
1786;DHT22;890;48.158;11.540;2024-01-16T09:19:33;1.70;94.30
1786;DHT22;890;48.158;11.540;2024-01-16T09:21:58;1.80;94.10
1786;DHT22;890;48.158;11.540;2024-01-16T09:24:24;1.90;93.70
1786;DHT22;890;48.158;11.540;2024-01-16T09:26:49;1.80;92.70
1786;DHT22;890;48.158;11.540;2024-01-16T09:29:15;1.80;92.70
1786;DHT22;890;48.158;11.540;2024-01-16T09:31:41;1.90;92.50
1786;DHT22;890;48.158;11.540;2024-01-16T09:34:07;1.80;92.50
1786;DHT22;890;48.158;11.540;2024-01-16T09:36:33;1.70;92.10
1786;DHT22;890;48.158;11.540;2024-01-16T09:39:01;1.80;92.50
1786;DHT22;890;48.158;11.540;2024-01-16T09:41:27;1.90;92.60
1786;DHT22;890;48.158;11.540;2024-01-16T09:43:54;2.00;92.80
1786;DHT22;890;48.158;11.540;2024-01-16T09:46:22;2.10;92.90
1786;DHT22;890;48.158;11.540;2024-01-16T09:48:51;2.20;92.80
1786;DHT22;890;48.158;11.540;2024-01-16T09:51:18;2.20;93.10
1786;DHT22;890;48.158;11.540;2024-01-16T09:53:43;2.30;93.20
1786;DHT22;890;48.158;11.540;2024-01-16T09:56:22;2.30;92.70
1786;DHT22;890;48.158;11.540;2024-01-16T09:58:51;2.30;92.50
1786;DHT22;890;48.158;11.540;2024-01-16T10:01:19;2.40;92.50
1786;DHT22;890;48.158;11.540;2024-01-16T10:03:45;2.40;92.20
1786;DHT22;890;48.158;11.540;2024-01-16T10:06:11;2.30;92.00
1786;DHT22;890;48.158;11.540;2024-01-16T10:08:37;3.40;92.50
1786;DHT22;890;48.158;11.540;2024-01-16T10:11:03;2.30;91.90
1786;DHT22;890;48.158;11.540;2024-01-16T10:13:29;2.40;92.00
1786;DHT22;890;48.158;11.540;2024-01-16T10:15:55;2.60;92.00
1786;DHT22;890;48.158;11.540;2024-01-16T10:18:28;2.70;92.00
1786;DHT22;890;48.158;11.540;2024-01-16T10:20:55;3.30;92.20
1786;DHT22;890;48.158;11.540;2024-01-16T10:23:29;2.80;91.90
1786;DHT22;890;48.158;11.540;2024-01-16T10:28:33;2.80;91.60
1786;DHT22;890;48.158;11.540;2024-01-16T10:31:07;2.90;91.60
1786;DHT22;890;48.158;11.540;2024-01-16T10:33:32;3.10;91.50
1786;DHT22;890;48.158;11.540;2024-01-16T10:36:15;3.50;91.50
1786;DHT22;890;48.158;11.540;2024-01-16T10:38:47;2.90;91.30
1786;DHT22;890;48.158;11.540;2024-01-16T10:41:15;2.90;91.50
1786;DHT22;890;48.158;11.540;2024-01-16T10:43:42;3.00;91.60
1786;DHT22;890;48.158;11.540;2024-01-16T10:46:18;4.10;92.20
1786;DHT22;890;48.158;11.540;2024-01-16T10:48:58;2.80;91.10
1786;DHT22;890;48.158;11.540;2024-01-16T10:51:26;2.80;90.90
1786;DHT22;890;48.158;11.540;2024-01-16T10:54:01;2.70;91.00
1786;DHT22;890;48.158;11.540;2024-01-16T10:56:29;2.80;91.20
1786;DHT22;890;48.158;11.540;2024-01-16T10:59:18;2.90;91.30
1786;DHT22;890;48.158;11.540;2024-01-16T11:01:49;3.10;91.60
1786;DHT22;890;48.158;11.540;2024-01-16T11:04:18;4.70;92.60
1786;DHT22;890;48.158;11.540;2024-01-16T11:06:44;3.40;92.10
1786;DHT22;890;48.158;11.540;2024-01-16T11:09:13;4.90;92.70
1786;DHT22;890;48.158;11.540;2024-01-16T11:11:46;4.50;92.30
1786;DHT22;890;48.158;11.540;2024-01-16T11:14:16;3.90;91.80
1786;DHT22;890;48.158;11.540;2024-01-16T11:16:43;3.90;91.80
1786;DHT22;890;48.158;11.540;2024-01-16T11:19:13;3.90;91.40
1786;DHT22;890;48.158;11.540;2024-01-16T11:21:42;3.90;90.80
1786;DHT22;890;48.158;11.540;2024-01-16T11:24:08;3.70;90.60
1786;DHT22;890;48.158;11.540;2024-01-16T11:26:34;3.80;90.40
1786;DHT22;890;48.158;11.540;2024-01-16T11:31:53;3.30;89.20
1786;DHT22;890;48.158;11.540;2024-01-16T11:37:15;3.30;89.40
1786;DHT22;890;48.158;11.540;2024-01-16T11:39:50;3.10;88.60
1786;DHT22;890;48.158;11.540;2024-01-16T11:42:28;3.10;88.70
1786;DHT22;890;48.158;11.540;2024-01-16T11:44:54;3.10;88.70
1786;DHT22;890;48.158;11.540;2024-01-16T11:47:21;3.20;88.80
1786;DHT22;890;48.158;11.540;2024-01-16T11:49:48;3.30;88.50
1786;DHT22;890;48.158;11.540;2024-01-16T11:52:14;3.40;88.20
1786;DHT22;890;48.158;11.540;2024-01-16T11:54:41;3.70;84.80
1786;DHT22;890;48.158;11.540;2024-01-16T11:57:26;3.80;82.20
1786;DHT22;890;48.158;11.540;2024-01-16T12:00:05;3.70;81.00
1786;DHT22;890;48.158;11.540;2024-01-16T12:02:53;3.40;82.60
1786;DHT22;890;48.158;11.540;2024-01-16T12:05:21;3.40;83.40
1786;DHT22;890;48.158;11.540;2024-01-16T12:07:49;3.40;83.80
1786;DHT22;890;48.158;11.540;2024-01-16T12:10:16;3.40;83.80
1786;DHT22;890;48.158;11.540;2024-01-16T12:12:42;3.70;80.40
1786;DHT22;890;48.158;11.540;2024-01-16T12:15:17;3.50;80.10
1786;DHT22;890;48.158;11.540;2024-01-16T12:18:01;3.50;81.40
1786;DHT22;890;48.158;11.540;2024-01-16T12:20:30;3.50;82.00
1786;DHT22;890;48.158;11.540;2024-01-16T12:25:27;3.60;82.00
1786;DHT22;890;48.158;11.540;2024-01-16T12:27:57;3.50;81.80
1786;DHT22;890;48.158;11.540;2024-01-16T12:30:25;3.40;82.30
1786;DHT22;890;48.158;11.540;2024-01-16T12:32:51;3.50;82.40
1786;DHT22;890;48.158;11.540;2024-01-16T12:35:22;3.50;82.10
1786;DHT22;890;48.158;11.540;2024-01-16T12:38:04;3.50;81.40
1786;DHT22;890;48.158;11.540;2024-01-16T12:40:41;3.50;81.30
1786;DHT22;890;48.158;11.540;2024-01-16T12:43:08;3.50;81.10
1786;DHT22;890;48.158;11.540;2024-01-16T12:45:38;4.70;82.70
1786;DHT22;890;48.158;11.540;2024-01-16T12:48:04;3.60;81.60
1786;DHT22;890;48.158;11.540;2024-01-16T12:50:32;3.70;81.80
1786;DHT22;890;48.158;11.540;2024-01-16T12:53:11;3.80;81.70
1786;DHT22;890;48.158;11.540;2024-01-16T12:55:39;4.00;78.10
1786;DHT22;890;48.158;11.540;2024-01-16T12:58:32;4.30;76.00
1786;DHT22;890;48.158;11.540;2024-01-16T13:03:49;3.90;76.10
1786;DHT22;890;48.158;11.540;2024-01-16T13:06:23;3.80;76.70
1786;DHT22;890;48.158;11.540;2024-01-16T13:08:49;3.90;76.80
1786;DHT22;890;48.158;11.540;2024-01-16T13:11:16;3.90;76.60
1786;DHT22;890;48.158;11.540;2024-01-16T13:13:46;4.00;73.20
1786;DHT22;890;48.158;11.540;2024-01-16T13:16:12;4.10;71.20
1786;DHT22;890;48.158;11.540;2024-01-16T13:18:38;3.90;70.40
1786;DHT22;890;48.158;11.540;2024-01-16T13:21:03;3.90;72.10
1786;DHT22;890;48.158;11.540;2024-01-16T13:23:29;3.90;73.10
1786;DHT22;890;48.158;11.540;2024-01-16T13:25:56;4.30;72.10
1786;DHT22;890;48.158;11.540;2024-01-16T13:28:22;4.00;71.10
1786;DHT22;890;48.158;11.540;2024-01-16T13:30:49;3.90;71.80
1786;DHT22;890;48.158;11.540;2024-01-16T13:33:16;5.00;72.90
1786;DHT22;890;48.158;11.540;2024-01-16T13:35:46;4.00;72.00
1786;DHT22;890;48.158;11.540;2024-01-16T13:38:13;4.60;72.80
1786;DHT22;890;48.158;11.540;2024-01-16T13:40:41;4.20;70.40
1786;DHT22;890;48.158;11.540;2024-01-16T13:43:07;4.00;70.00
1786;DHT22;890;48.158;11.540;2024-01-16T13:45:33;3.90;70.70
1786;DHT22;890;48.158;11.540;2024-01-16T13:48:00;4.00;70.80
1786;DHT22;890;48.158;11.540;2024-01-16T13:50:26;3.90;71.00
1786;DHT22;890;48.158;11.540;2024-01-16T13:52:52;4.60;72.00
1786;DHT22;890;48.158;11.540;2024-01-16T13:55:19;4.70;72.50
1786;DHT22;890;48.158;11.540;2024-01-16T13:57:45;3.60;72.00
1786;DHT22;890;48.158;11.540;2024-01-16T14:00:12;3.50;72.30
1786;DHT22;890;48.158;11.540;2024-01-16T14:02:44;3.50;72.40
1786;DHT22;890;48.158;11.540;2024-01-16T14:05:10;3.50;72.40
1786;DHT22;890;48.158;11.540;2024-01-16T14:07:37;3.50;72.40
1786;DHT22;890;48.158;11.540;2024-01-16T14:10:08;3.50;72.30
1786;DHT22;890;48.158;11.540;2024-01-16T14:12:35;3.50;71.90
1786;DHT22;890;48.158;11.540;2024-01-16T14:15:02;3.50;71.70
1786;DHT22;890;48.158;11.540;2024-01-16T14:17:30;3.70;69.50
1786;DHT22;890;48.158;11.540;2024-01-16T14:19:55;3.40;69.00
1786;DHT22;890;48.158;11.540;2024-01-16T14:22:21;3.20;69.70
1786;DHT22;890;48.158;11.540;2024-01-16T14:24:47;3.50;70.30
1786;DHT22;890;48.158;11.540;2024-01-16T14:27:16;3.10;70.10
1786;DHT22;890;48.158;11.540;2024-01-16T14:29:42;3.00;70.30
1786;DHT22;890;48.158;11.540;2024-01-16T14:32:08;2.90;70.20
1786;DHT22;890;48.158;11.540;2024-01-16T14:34:34;2.90;70.30
1786;DHT22;890;48.158;11.540;2024-01-16T14:36:59;2.90;70.40
1786;DHT22;890;48.158;11.540;2024-01-16T14:39:25;2.80;70.40
1786;DHT22;890;48.158;11.540;2024-01-16T14:41:50;3.90;71.80
1786;DHT22;890;48.158;11.540;2024-01-16T14:44:19;4.10;72.10
1786;DHT22;890;48.158;11.540;2024-01-16T14:46:45;3.80;71.80
1786;DHT22;890;48.158;11.540;2024-01-16T14:49:10;2.80;71.50
1786;DHT22;890;48.158;11.540;2024-01-16T14:51:37;2.70;70.60
1786;DHT22;890;48.158;11.540;2024-01-16T14:54:03;2.70;70.70
1786;DHT22;890;48.158;11.540;2024-01-16T14:56:30;2.60;70.80
1786;DHT22;890;48.158;11.540;2024-01-16T14:58:57;2.60;71.00
1786;DHT22;890;48.158;11.540;2024-01-16T15:01:23;2.50;70.90
1786;DHT22;890;48.158;11.540;2024-01-16T15:03:48;2.50;71.10
1786;DHT22;890;48.158;11.540;2024-01-16T15:06:14;2.80;71.40
1786;DHT22;890;48.158;11.540;2024-01-16T15:08:41;2.50;71.00
1786;DHT22;890;48.158;11.540;2024-01-16T15:11:06;2.60;70.80
1786;DHT22;890;48.158;11.540;2024-01-16T15:13:32;2.60;70.70
1786;DHT22;890;48.158;11.540;2024-01-16T15:15:59;2.50;70.50
1786;DHT22;890;48.158;11.540;2024-01-16T15:18:25;2.50;70.40
1786;DHT22;890;48.158;11.540;2024-01-16T15:20:50;2.50;70.40
1786;DHT22;890;48.158;11.540;2024-01-16T15:23:16;2.40;70.30
1786;DHT22;890;48.158;11.540;2024-01-16T15:25:42;2.40;70.40
1786;DHT22;890;48.158;11.540;2024-01-16T15:28:08;2.30;70.40
1786;DHT22;890;48.158;11.540;2024-01-16T15:30:34;2.30;71.20
1786;DHT22;890;48.158;11.540;2024-01-16T15:33:02;2.20;70.40
1786;DHT22;890;48.158;11.540;2024-01-16T15:35:31;2.20;70.40
1786;DHT22;890;48.158;11.540;2024-01-16T15:37:57;2.20;70.50
1786;DHT22;890;48.158;11.540;2024-01-16T15:40:23;2.20;70.40
1786;DHT22;890;48.158;11.540;2024-01-16T15:42:49;2.20;70.60
1786;DHT22;890;48.158;11.540;2024-01-16T15:45:16;2.10;70.50
1786;DHT22;890;48.158;11.540;2024-01-16T15:47:42;2.90;71.30
1786;DHT22;890;48.158;11.540;2024-01-16T15:50:08;2.10;70.40
1786;DHT22;890;48.158;11.540;2024-01-16T15:52:34;2.10;70.40
1786;DHT22;890;48.158;11.540;2024-01-16T15:55:00;2.20;70.30
1786;DHT22;890;48.158;11.540;2024-01-16T15:57:26;2.80;70.70
1786;DHT22;890;48.158;11.540;2024-01-16T15:59:52;3.20;70.90
1786;DHT22;890;48.158;11.540;2024-01-16T16:02:18;3.30;71.10
1786;DHT22;890;48.158;11.540;2024-01-16T16:04:44;2.30;70.30
1786;DHT22;890;48.158;11.540;2024-01-16T16:07:09;1.90;69.80
1786;DHT22;890;48.158;11.540;2024-01-16T16:09:35;2.10;70.00
1786;DHT22;890;48.158;11.540;2024-01-16T16:12:01;1.80;69.70
1786;DHT22;890;48.158;11.540;2024-01-16T16:14:30;1.80;69.80
1786;DHT22;890;48.158;11.540;2024-01-16T16:17:05;1.80;69.80
1786;DHT22;890;48.158;11.540;2024-01-16T16:19:34;1.70;69.80
1786;DHT22;890;48.158;11.540;2024-01-16T16:22:00;1.70;69.90
1786;DHT22;890;48.158;11.540;2024-01-16T16:24:25;1.70;70.00